sensor_id;sensor_type;location;lat;lon;timestamp;P1;durP1;ratioP1;P2;durP2;ratioP2
16792;SDS011;8513;42.662;23.350;2023-05-07T00:01:07;7.68;;;5.78;;
16792;SDS011;8513;42.662;23.350;2023-05-07T00:03:32;8.40;;;5.78;;
16792;SDS011;8513;42.662;23.350;2023-05-07T00:05:58;7.30;;;6.35;;
16792;SDS011;8513;42.662;23.350;2023-05-07T00:08:23;11.52;;;7.18;;
16792;SDS011;8513;42.662;23.350;2023-05-07T00:10:49;10.90;;;9.63;;
16792;SDS011;8513;42.662;23.350;2023-05-07T00:13:14;13.45;;;10.48;;
16792;SDS011;8513;42.662;23.350;2023-05-07T00:15:40;13.60;;;12.18;;
16792;SDS011;8513;42.662;23.350;2023-05-07T00:18:05;13.15;;;10.52;;
16792;SDS011;8513;42.662;23.350;2023-05-07T00:20:31;15.30;;;12.00;;
16792;SDS011;8513;42.662;23.350;2023-05-07T00:22:56;13.15;;;11.50;;
16792;SDS011;8513;42.662;23.350;2023-05-07T00:25:22;13.27;;;11.25;;
16792;SDS011;8513;42.662;23.350;2023-05-07T00:27:48;14.25;;;11.23;;
16792;SDS011;8513;42.662;23.350;2023-05-07T00:30:13;13.45;;;11.13;;
16792;SDS011;8513;42.662;23.350;2023-05-07T00:32:39;15.40;;;11.60;;
16792;SDS011;8513;42.662;23.350;2023-05-07T00:35:05;13.60;;;11.73;;
16792;SDS011;8513;42.662;23.350;2023-05-07T00:37:31;12.65;;;11.07;;
16792;SDS011;8513;42.662;23.350;2023-05-07T00:39:56;13.13;;;11.02;;
16792;SDS011;8513;42.662;23.350;2023-05-07T00:42:22;14.30;;;11.85;;
16792;SDS011;8513;42.662;23.350;2023-05-07T00:44:47;12.45;;;11.23;;
16792;SDS011;8513;42.662;23.350;2023-05-07T00:47:13;12.80;;;11.40;;
16792;SDS011;8513;42.662;23.350;2023-05-07T00:49:42;12.63;;;11.25;;
16792;SDS011;8513;42.662;23.350;2023-05-07T00:52:15;12.40;;;11.13;;
16792;SDS011;8513;42.662;23.350;2023-05-07T00:54:42;17.27;;;10.73;;
16792;SDS011;8513;42.662;23.350;2023-05-07T00:57:08;11.68;;;10.38;;
16792;SDS011;8513;42.662;23.350;2023-05-07T00:59:36;12.00;;;10.55;;
16792;SDS011;8513;42.662;23.350;2023-05-07T01:02:01;11.38;;;10.15;;
16792;SDS011;8513;42.662;23.350;2023-05-07T01:04:27;11.90;;;10.07;;
16792;SDS011;8513;42.662;23.350;2023-05-07T01:06:52;10.48;;;9.48;;
16792;SDS011;8513;42.662;23.350;2023-05-07T01:09:21;11.98;;;9.27;;
16792;SDS011;8513;42.662;23.350;2023-05-07T01:11:47;12.60;;;8.85;;
16792;SDS011;8513;42.662;23.350;2023-05-07T01:14:14;9.60;;;8.50;;
16792;SDS011;8513;42.662;23.350;2023-05-07T01:16:40;9.18;;;8.07;;
16792;SDS011;8513;42.662;23.350;2023-05-07T01:19:07;7.90;;;6.28;;
16792;SDS011;8513;42.662;23.350;2023-05-07T01:21:33;6.07;;;5.47;;
16792;SDS011;8513;42.662;23.350;2023-05-07T01:24:02;7.10;;;5.28;;
16792;SDS011;8513;42.662;23.350;2023-05-07T01:26:27;5.35;;;4.95;;
16792;SDS011;8513;42.662;23.350;2023-05-07T01:28:53;6.50;;;4.63;;
16792;SDS011;8513;42.662;23.350;2023-05-07T01:31:18;6.20;;;4.38;;
16792;SDS011;8513;42.662;23.350;2023-05-07T01:33:45;4.45;;;4.03;;
16792;SDS011;8513;42.662;23.350;2023-05-07T01:36:13;6.90;;;4.45;;
16792;SDS011;8513;42.662;23.350;2023-05-07T01:38:39;8.23;;;3.60;;
16792;SDS011;8513;42.662;23.350;2023-05-07T01:41:06;5.40;;;4.65;;
16792;SDS011;8513;42.662;23.350;2023-05-07T01:43:32;4.85;;;4.45;;
16792;SDS011;8513;42.662;23.350;2023-05-07T01:45:58;6.68;;;4.47;;
16792;SDS011;8513;42.662;23.350;2023-05-07T01:48:24;7.10;;;4.97;;
16792;SDS011;8513;42.662;23.350;2023-05-07T01:50:51;6.55;;;4.55;;
16792;SDS011;8513;42.662;23.350;2023-05-07T01:53:16;7.73;;;5.00;;
16792;SDS011;8513;42.662;23.350;2023-05-07T01:55:42;5.22;;;4.78;;
16792;SDS011;8513;42.662;23.350;2023-05-07T01:58:07;7.03;;;5.03;;
16792;SDS011;8513;42.662;23.350;2023-05-07T02:00:33;5.30;;;4.80;;
16792;SDS011;8513;42.662;23.350;2023-05-07T02:02:59;6.78;;;6.15;;
16792;SDS011;8513;42.662;23.350;2023-05-07T02:05:24;6.78;;;6.18;;
16792;SDS011;8513;42.662;23.350;2023-05-07T02:07:50;7.28;;;6.68;;
16792;SDS011;8513;42.662;23.350;2023-05-07T02:10:15;7.43;;;6.47;;
16792;SDS011;8513;42.662;23.350;2023-05-07T02:12:40;7.15;;;6.55;;
16792;SDS011;8513;42.662;23.350;2023-05-07T02:15:07;7.68;;;6.93;;
16792;SDS011;8513;42.662;23.350;2023-05-07T02:17:33;7.95;;;7.03;;
16792;SDS011;8513;42.662;23.350;2023-05-07T02:19:59;7.75;;;7.00;;
16792;SDS011;8513;42.662;23.350;2023-05-07T02:22:24;7.65;;;6.88;;
16792;SDS011;8513;42.662;23.350;2023-05-07T02:24:50;7.35;;;6.65;;
16792;SDS011;8513;42.662;23.350;2023-05-07T02:27:16;7.68;;;6.32;;
16792;SDS011;8513;42.662;23.350;2023-05-07T02:29:41;7.13;;;6.63;;
16792;SDS011;8513;42.662;23.350;2023-05-07T02:32:07;9.20;;;7.05;;
16792;SDS011;8513;42.662;23.350;2023-05-07T02:34:32;7.55;;;6.82;;
16792;SDS011;8513;42.662;23.350;2023-05-07T02:36:58;7.55;;;6.85;;
16792;SDS011;8513;42.662;23.350;2023-05-07T02:39:23;6.85;;;6.30;;
16792;SDS011;8513;42.662;23.350;2023-05-07T02:41:48;9.13;;;6.95;;
16792;SDS011;8513;42.662;23.350;2023-05-07T02:44:14;8.85;;;7.75;;
16792;SDS011;8513;42.662;23.350;2023-05-07T02:46:39;7.90;;;7.10;;
16792;SDS011;8513;42.662;23.350;2023-05-07T02:49:05;7.60;;;6.90;;
16792;SDS011;8513;42.662;23.350;2023-05-07T02:51:31;7.38;;;6.78;;
16792;SDS011;8513;42.662;23.350;2023-05-07T02:53:56;8.38;;;6.85;;
16792;SDS011;8513;42.662;23.350;2023-05-07T02:56:22;8.02;;;7.25;;
16792;SDS011;8513;42.662;23.350;2023-05-07T02:58:47;7.88;;;7.07;;
16792;SDS011;8513;42.662;23.350;2023-05-07T03:01:13;8.30;;;7.60;;
16792;SDS011;8513;42.662;23.350;2023-05-07T03:03:39;8.70;;;7.15;;
16792;SDS011;8513;42.662;23.350;2023-05-07T03:06:05;8.25;;;7.45;;
16792;SDS011;8513;42.662;23.350;2023-05-07T03:08:31;8.75;;;7.82;;
16792;SDS011;8513;42.662;23.350;2023-05-07T03:10:57;8.32;;;7.63;;
16792;SDS011;8513;42.662;23.350;2023-05-07T03:13:23;9.07;;;7.97;;
16792;SDS011;8513;42.662;23.350;2023-05-07T03:15:48;9.07;;;8.18;;
16792;SDS011;8513;42.662;23.350;2023-05-07T03:18:14;8.75;;;7.95;;
16792;SDS011;8513;42.662;23.350;2023-05-07T03:20:39;9.82;;;8.93;;
16792;SDS011;8513;42.662;23.350;2023-05-07T03:23:05;10.35;;;9.25;;
16792;SDS011;8513;42.662;23.350;2023-05-07T03:25:31;10.13;;;9.32;;
16792;SDS011;8513;42.662;23.350;2023-05-07T03:27:57;10.80;;;9.88;;
16792;SDS011;8513;42.662;23.350;2023-05-07T03:30:22;10.63;;;9.65;;
16792;SDS011;8513;42.662;23.350;2023-05-07T03:32:48;11.43;;;10.25;;
16792;SDS011;8513;42.662;23.350;2023-05-07T03:35:13;11.30;;;10.30;;
16792;SDS011;8513;42.662;23.350;2023-05-07T03:37:39;11.20;;;10.20;;
16792;SDS011;8513;42.662;23.350;2023-05-07T03:40:05;11.63;;;10.50;;
16792;SDS011;8513;42.662;23.350;2023-05-07T03:42:31;11.13;;;10.18;;
16792;SDS011;8513;42.662;23.350;2023-05-07T03:44:57;12.35;;;11.13;;
16792;SDS011;8513;42.662;23.350;2023-05-07T03:47:22;11.85;;;10.85;;
16792;SDS011;8513;42.662;23.350;2023-05-07T03:49:47;12.15;;;11.05;;
16792;SDS011;8513;42.662;23.350;2023-05-07T03:52:14;11.77;;;10.27;;
16792;SDS011;8513;42.662;23.350;2023-05-07T03:54:40;11.52;;;10.52;;
16792;SDS011;8513;42.662;23.350;2023-05-07T03:57:05;10.43;;;9.23;;
16792;SDS011;8513;42.662;23.350;2023-05-07T03:59:31;10.15;;;9.25;;
16792;SDS011;8513;42.662;23.350;2023-05-07T04:01:56;10.35;;;9.30;;
16792;SDS011;8513;42.662;23.350;2023-05-07T04:04:22;10.35;;;9.45;;
16792;SDS011;8513;42.662;23.350;2023-05-07T04:06:47;11.50;;;9.02;;
16792;SDS011;8513;42.662;23.350;2023-05-07T04:09:13;10.33;;;9.17;;
16792;SDS011;8513;42.662;23.350;2023-05-07T04:11:38;10.30;;;9.30;;
16792;SDS011;8513;42.662;23.350;2023-05-07T04:14:05;11.45;;;10.02;;
16792;SDS011;8513;42.662;23.350;2023-05-07T04:16:31;10.38;;;9.25;;
16792;SDS011;8513;42.662;23.350;2023-05-07T04:18:56;10.40;;;9.05;;
16792;SDS011;8513;42.662;23.350;2023-05-07T04:21:22;11.13;;;9.32;;
16792;SDS011;8513;42.662;23.350;2023-05-07T04:23:47;10.18;;;9.18;;
16792;SDS011;8513;42.662;23.350;2023-05-07T04:26:13;10.30;;;9.30;;
16792;SDS011;8513;42.662;23.350;2023-05-07T04:28:39;9.45;;;8.52;;
16792;SDS011;8513;42.662;23.350;2023-05-07T04:31:05;10.40;;;9.50;;
16792;SDS011;8513;42.662;23.350;2023-05-07T04:33:31;11.05;;;9.50;;
16792;SDS011;8513;42.662;23.350;2023-05-07T04:35:57;11.07;;;9.85;;
16792;SDS011;8513;42.662;23.350;2023-05-07T04:38:23;10.80;;;9.43;;
16792;SDS011;8513;42.662;23.350;2023-05-07T04:40:48;10.65;;;9.57;;
16792;SDS011;8513;42.662;23.350;2023-05-07T04:43:14;12.35;;;9.43;;
16792;SDS011;8513;42.662;23.350;2023-05-07T04:45:41;10.27;;;9.10;;
16792;SDS011;8513;42.662;23.350;2023-05-07T04:48:06;11.20;;;10.02;;
16792;SDS011;8513;42.662;23.350;2023-05-07T04:50:33;11.40;;;9.30;;
16792;SDS011;8513;42.662;23.350;2023-05-07T04:52:59;10.65;;;9.63;;
16792;SDS011;8513;42.662;23.350;2023-05-07T04:55:24;11.05;;;9.98;;
16792;SDS011;8513;42.662;23.350;2023-05-07T04:57:50;11.13;;;10.13;;
16792;SDS011;8513;42.662;23.350;2023-05-07T05:00:15;13.10;;;10.57;;
16792;SDS011;8513;42.662;23.350;2023-05-07T05:02:41;12.27;;;10.38;;
16792;SDS011;8513;42.662;23.350;2023-05-07T05:05:07;11.57;;;10.50;;
16792;SDS011;8513;42.662;23.350;2023-05-07T05:07:32;11.27;;;10.07;;
16792;SDS011;8513;42.662;23.350;2023-05-07T05:09:58;12.00;;;10.73;;
16792;SDS011;8513;42.662;23.350;2023-05-07T05:12:24;13.90;;;9.75;;
16792;SDS011;8513;42.662;23.350;2023-05-07T05:14:49;11.93;;;10.80;;
16792;SDS011;8513;42.662;23.350;2023-05-07T05:17:15;10.65;;;9.75;;
16792;SDS011;8513;42.662;23.350;2023-05-07T05:19:40;11.55;;;10.55;;
16792;SDS011;8513;42.662;23.350;2023-05-07T05:22:05;11.93;;;10.70;;
16792;SDS011;8513;42.662;23.350;2023-05-07T05:24:31;12.10;;;10.75;;
16792;SDS011;8513;42.662;23.350;2023-05-07T05:26:56;11.75;;;10.27;;
16792;SDS011;8513;42.662;23.350;2023-05-07T05:29:22;16.73;;;11.18;;
16792;SDS011;8513;42.662;23.350;2023-05-07T05:31:47;13.93;;;11.70;;
16792;SDS011;8513;42.662;23.350;2023-05-07T05:34:13;12.70;;;10.52;;
16792;SDS011;8513;42.662;23.350;2023-05-07T05:36:39;12.15;;;10.95;;
16792;SDS011;8513;42.662;23.350;2023-05-07T05:39:04;11.95;;;10.52;;
16792;SDS011;8513;42.662;23.350;2023-05-07T05:41:30;12.90;;;11.70;;
16792;SDS011;8513;42.662;23.350;2023-05-07T05:43:55;11.27;;;10.20;;
16792;SDS011;8513;42.662;23.350;2023-05-07T05:46:21;11.93;;;10.73;;
16792;SDS011;8513;42.662;23.350;2023-05-07T05:48:46;11.80;;;10.50;;
16792;SDS011;8513;42.662;23.350;2023-05-07T05:51:12;12.70;;;9.85;;
16792;SDS011;8513;42.662;23.350;2023-05-07T05:53:37;11.60;;;10.40;;
16792;SDS011;8513;42.662;23.350;2023-05-07T05:56:03;11.65;;;10.40;;
16792;SDS011;8513;42.662;23.350;2023-05-07T05:58:29;10.85;;;9.73;;
16792;SDS011;8513;42.662;23.350;2023-05-07T06:00:54;11.05;;;9.70;;
16792;SDS011;8513;42.662;23.350;2023-05-07T06:03:20;11.13;;;10.10;;
16792;SDS011;8513;42.662;23.350;2023-05-07T06:05:45;10.57;;;9.55;;
16792;SDS011;8513;42.662;23.350;2023-05-07T06:08:10;10.63;;;9.48;;
16792;SDS011;8513;42.662;23.350;2023-05-07T06:10:36;10.95;;;9.85;;
16792;SDS011;8513;42.662;23.350;2023-05-07T06:13:02;11.10;;;9.95;;
16792;SDS011;8513;42.662;23.350;2023-05-07T06:15:28;12.02;;;9.65;;
16792;SDS011;8513;42.662;23.350;2023-05-07T06:17:53;10.43;;;9.15;;
16792;SDS011;8513;42.662;23.350;2023-05-07T06:20:20;10.68;;;9.20;;
16792;SDS011;8513;42.662;23.350;2023-05-07T06:22:46;9.68;;;8.85;;
16792;SDS011;8513;42.662;23.350;2023-05-07T06:25:11;10.00;;;9.00;;
16792;SDS011;8513;42.662;23.350;2023-05-07T06:27:37;9.30;;;8.43;;
16792;SDS011;8513;42.662;23.350;2023-05-07T06:30:04;8.82;;;8.13;;
16792;SDS011;8513;42.662;23.350;2023-05-07T06:32:30;10.20;;;9.15;;
16792;SDS011;8513;42.662;23.350;2023-05-07T06:34:56;10.05;;;8.60;;
16792;SDS011;8513;42.662;23.350;2023-05-07T06:37:21;9.43;;;8.52;;
16792;SDS011;8513;42.662;23.350;2023-05-07T06:39:46;9.40;;;8.50;;
16792;SDS011;8513;42.662;23.350;2023-05-07T06:42:12;9.35;;;8.45;;
16792;SDS011;8513;42.662;23.350;2023-05-07T06:44:37;10.80;;;8.15;;
16792;SDS011;8513;42.662;23.350;2023-05-07T06:47:03;8.98;;;8.13;;
16792;SDS011;8513;42.662;23.350;2023-05-07T06:49:28;10.25;;;8.85;;
16792;SDS011;8513;42.662;23.350;2023-05-07T06:51:54;9.23;;;8.30;;
16792;SDS011;8513;42.662;23.350;2023-05-07T06:54:20;10.52;;;8.38;;
16792;SDS011;8513;42.662;23.350;2023-05-07T06:56:46;9.95;;;8.90;;
16792;SDS011;8513;42.662;23.350;2023-05-07T06:59:11;9.35;;;8.25;;
16792;SDS011;8513;42.662;23.350;2023-05-07T07:01:36;9.52;;;8.70;;
16792;SDS011;8513;42.662;23.350;2023-05-07T07:04:02;10.00;;;9.00;;
16792;SDS011;8513;42.662;23.350;2023-05-07T07:06:28;8.98;;;8.10;;
16792;SDS011;8513;42.662;23.350;2023-05-07T07:08:53;9.88;;;8.63;;
16792;SDS011;8513;42.662;23.350;2023-05-07T07:11:18;10.98;;;8.75;;
16792;SDS011;8513;42.662;23.350;2023-05-07T07:13:44;10.85;;;8.35;;
16792;SDS011;8513;42.662;23.350;2023-05-07T07:16:10;9.60;;;8.15;;
16792;SDS011;8513;42.662;23.350;2023-05-07T07:18:35;9.02;;;8.13;;
16792;SDS011;8513;42.662;23.350;2023-05-07T07:21:01;14.85;;;9.50;;
16792;SDS011;8513;42.662;23.350;2023-05-07T07:23:26;11.00;;;9.48;;
16792;SDS011;8513;42.662;23.350;2023-05-07T07:25:51;11.23;;;10.13;;
16792;SDS011;8513;42.662;23.350;2023-05-07T07:28:17;10.73;;;9.73;;
16792;SDS011;8513;42.662;23.350;2023-05-07T07:30:42;10.38;;;9.40;;
16792;SDS011;8513;42.662;23.350;2023-05-07T07:33:08;10.52;;;9.27;;
16792;SDS011;8513;42.662;23.350;2023-05-07T07:35:33;10.73;;;9.38;;
16792;SDS011;8513;42.662;23.350;2023-05-07T07:37:59;10.95;;;9.85;;
16792;SDS011;8513;42.662;23.350;2023-05-07T07:40:25;11.32;;;10.23;;
16792;SDS011;8513;42.662;23.350;2023-05-07T07:42:51;15.45;;;9.48;;
16792;SDS011;8513;42.662;23.350;2023-05-07T07:45:18;11.93;;;9.35;;
16792;SDS011;8513;42.662;23.350;2023-05-07T07:47:44;10.82;;;9.73;;
16792;SDS011;8513;42.662;23.350;2023-05-07T07:50:10;47.72;;;12.60;;
16792;SDS011;8513;42.662;23.350;2023-05-07T07:52:35;11.88;;;9.32;;
16792;SDS011;8513;42.662;23.350;2023-05-07T07:55:01;10.10;;;9.20;;
16792;SDS011;8513;42.662;23.350;2023-05-07T07:57:27;10.80;;;9.90;;
16792;SDS011;8513;42.662;23.350;2023-05-07T07:59:52;12.07;;;10.88;;
16792;SDS011;8513;42.662;23.350;2023-05-07T08:02:18;10.80;;;9.80;;
16792;SDS011;8513;42.662;23.350;2023-05-07T08:04:43;11.30;;;10.20;;
16792;SDS011;8513;42.662;23.350;2023-05-07T08:07:09;11.43;;;10.38;;
16792;SDS011;8513;42.662;23.350;2023-05-07T08:09:36;11.75;;;10.55;;
16792;SDS011;8513;42.662;23.350;2023-05-07T08:12:03;10.43;;;9.45;;
16792;SDS011;8513;42.662;23.350;2023-05-07T08:14:28;13.80;;;10.45;;
16792;SDS011;8513;42.662;23.350;2023-05-07T08:16:54;12.43;;;9.77;;
16792;SDS011;8513;42.662;23.350;2023-05-07T08:19:20;11.23;;;9.82;;
16792;SDS011;8513;42.662;23.350;2023-05-07T08:21:46;10.52;;;9.57;;
16792;SDS011;8513;42.662;23.350;2023-05-07T08:24:13;11.60;;;10.60;;
16792;SDS011;8513;42.662;23.350;2023-05-07T08:26:42;11.60;;;9.02;;
16792;SDS011;8513;42.662;23.350;2023-05-07T08:29:08;9.77;;;8.75;;
16792;SDS011;8513;42.662;23.350;2023-05-07T08:31:34;9.35;;;8.30;;
16792;SDS011;8513;42.662;23.350;2023-05-07T08:33:59;9.70;;;8.73;;
16792;SDS011;8513;42.662;23.350;2023-05-07T08:36:25;12.90;;;8.57;;
16792;SDS011;8513;42.662;23.350;2023-05-07T08:38:51;8.90;;;8.02;;
16792;SDS011;8513;42.662;23.350;2023-05-07T08:41:17;8.98;;;8.18;;
16792;SDS011;8513;42.662;23.350;2023-05-07T08:43:44;11.05;;;8.93;;
16792;SDS011;8513;42.662;23.350;2023-05-07T08:46:15;9.13;;;8.07;;
16792;SDS011;8513;42.662;23.350;2023-05-07T08:48:43;12.75;;;8.73;;
16792;SDS011;8513;42.662;23.350;2023-05-07T08:51:12;10.35;;;8.68;;
16792;SDS011;8513;42.662;23.350;2023-05-07T08:53:39;8.80;;;7.90;;
16792;SDS011;8513;42.662;23.350;2023-05-07T08:56:07;8.65;;;7.80;;
16792;SDS011;8513;42.662;23.350;2023-05-07T08:58:33;8.25;;;7.45;;
16792;SDS011;8513;42.662;23.350;2023-05-07T09:01:00;11.10;;;6.85;;
16792;SDS011;8513;42.662;23.350;2023-05-07T09:03:30;11.07;;;7.07;;
16792;SDS011;8513;42.662;23.350;2023-05-07T09:05:56;8.70;;;7.20;;
16792;SDS011;8513;42.662;23.350;2023-05-07T09:08:24;8.82;;;7.22;;
16792;SDS011;8513;42.662;23.350;2023-05-07T09:10:51;7.82;;;6.43;;
16792;SDS011;8513;42.662;23.350;2023-05-07T09:13:17;6.93;;;6.28;;
16792;SDS011;8513;42.662;23.350;2023-05-07T09:15:43;7.53;;;6.82;;
16792;SDS011;8513;42.662;23.350;2023-05-07T09:18:08;8.82;;;6.75;;
16792;SDS011;8513;42.662;23.350;2023-05-07T09:20:36;8.25;;;6.57;;
16792;SDS011;8513;42.662;23.350;2023-05-07T09:23:01;8.15;;;6.18;;
16792;SDS011;8513;42.662;23.350;2023-05-07T09:25:31;7.78;;;6.38;;
16792;SDS011;8513;42.662;23.350;2023-05-07T09:27:57;6.93;;;6.25;;
16792;SDS011;8513;42.662;23.350;2023-05-07T09:30:27;6.57;;;5.97;;
16792;SDS011;8513;42.662;23.350;2023-05-07T09:32:56;7.57;;;5.63;;
16792;SDS011;8513;42.662;23.350;2023-05-07T09:35:22;6.95;;;6.00;;
16792;SDS011;8513;42.662;23.350;2023-05-07T09:37:52;6.60;;;5.60;;
16792;SDS011;8513;42.662;23.350;2023-05-07T09:40:22;6.00;;;5.50;;
16792;SDS011;8513;42.662;23.350;2023-05-07T09:42:49;6.03;;;5.43;;
16792;SDS011;8513;42.662;23.350;2023-05-07T09:45:16;7.15;;;5.88;;
16792;SDS011;8513;42.662;23.350;2023-05-07T09:47:46;5.82;;;5.22;;
16792;SDS011;8513;42.662;23.350;2023-05-07T09:50:15;5.75;;;5.25;;
16792;SDS011;8513;42.662;23.350;2023-05-07T09:52:41;5.93;;;5.32;;
16792;SDS011;8513;42.662;23.350;2023-05-07T09:55:09;5.97;;;5.38;;
16792;SDS011;8513;42.662;23.350;2023-05-07T09:57:35;5.28;;;4.78;;
16792;SDS011;8513;42.662;23.350;2023-05-07T10:00:01;6.03;;;5.05;;
16792;SDS011;8513;42.662;23.350;2023-05-07T10:02:29;5.60;;;4.97;;
16792;SDS011;8513;42.662;23.350;2023-05-07T10:04:58;5.80;;;5.20;;
16792;SDS011;8513;42.662;23.350;2023-05-07T10:07:25;5.40;;;4.82;;
16792;SDS011;8513;42.662;23.350;2023-05-07T10:09:51;4.90;;;4.40;;
16792;SDS011;8513;42.662;23.350;2023-05-07T10:12:17;5.05;;;4.60;;
16792;SDS011;8513;42.662;23.350;2023-05-07T10:14:43;5.35;;;3.70;;
16792;SDS011;8513;42.662;23.350;2023-05-07T10:17:11;5.45;;;4.47;;
16792;SDS011;8513;42.662;23.350;2023-05-07T10:19:36;4.50;;;4.10;;
16792;SDS011;8513;42.662;23.350;2023-05-07T10:22:05;4.40;;;4.00;;
16792;SDS011;8513;42.662;23.350;2023-05-07T10:24:31;4.45;;;4.05;;
16792;SDS011;8513;42.662;23.350;2023-05-07T10:27:02;4.60;;;3.78;;
16792;SDS011;8513;42.662;23.350;2023-05-07T10:29:42;4.43;;;4.03;;
16792;SDS011;8513;42.662;23.350;2023-05-07T10:35:07;4.22;;;3.17;;
16792;SDS011;8513;42.662;23.350;2023-05-07T10:37:39;5.03;;;4.00;;
16792;SDS011;8513;42.662;23.350;2023-05-07T10:40:05;7.45;;;4.15;;
16792;SDS011;8513;42.662;23.350;2023-05-07T10:42:32;4.32;;;3.88;;
16792;SDS011;8513;42.662;23.350;2023-05-07T10:44:57;6.50;;;4.38;;
16792;SDS011;8513;42.662;23.350;2023-05-07T10:47:36;4.68;;;4.35;;
16792;SDS011;8513;42.662;23.350;2023-05-07T10:50:30;4.22;;;3.80;;
16792;SDS011;8513;42.662;23.350;2023-05-07T10:55:40;4.15;;;3.72;;
16792;SDS011;8513;42.662;23.350;2023-05-07T11:00:46;5.10;;;3.83;;
16792;SDS011;8513;42.662;23.350;2023-05-07T11:03:12;5.82;;;4.07;;
16792;SDS011;8513;42.662;23.350;2023-05-07T11:05:39;4.90;;;3.67;;
16792;SDS011;8513;42.662;23.350;2023-05-07T11:08:06;6.22;;;3.80;;
16792;SDS011;8513;42.662;23.350;2023-05-07T11:10:54;6.93;;;4.63;;
16792;SDS011;8513;42.662;23.350;2023-05-07T11:13:40;4.15;;;3.70;;
16792;SDS011;8513;42.662;23.350;2023-05-07T11:16:20;4.65;;;3.78;;
16792;SDS011;8513;42.662;23.350;2023-05-07T11:18:52;5.25;;;4.82;;
16792;SDS011;8513;42.662;23.350;2023-05-07T11:23:59;5.85;;;4.07;;
16792;SDS011;8513;42.662;23.350;2023-05-07T11:26:25;4.32;;;3.92;;
16792;SDS011;8513;42.662;23.350;2023-05-07T11:28:52;4.40;;;4.00;;
16792;SDS011;8513;42.662;23.350;2023-05-07T11:31:22;4.53;;;4.13;;
16792;SDS011;8513;42.662;23.350;2023-05-07T11:33:49;4.18;;;3.67;;
16792;SDS011;8513;42.662;23.350;2023-05-07T11:36:15;4.82;;;4.03;;
16792;SDS011;8513;42.662;23.350;2023-05-07T11:38:41;4.00;;;3.60;;
16792;SDS011;8513;42.662;23.350;2023-05-07T11:41:06;4.40;;;3.00;;
16792;SDS011;8513;42.662;23.350;2023-05-07T11:43:32;4.32;;;3.90;;
16792;SDS011;8513;42.662;23.350;2023-05-07T11:46:10;4.05;;;3.50;;
16792;SDS011;8513;42.662;23.350;2023-05-07T11:48:36;4.85;;;3.55;;
16792;SDS011;8513;42.662;23.350;2023-05-07T11:51:03;4.63;;;3.97;;
16792;SDS011;8513;42.662;23.350;2023-05-07T11:53:37;6.30;;;3.58;;
16792;SDS011;8513;42.662;23.350;2023-05-07T11:56:07;4.90;;;4.13;;
16792;SDS011;8513;42.662;23.350;2023-05-07T11:58:33;3.83;;;3.53;;
16792;SDS011;8513;42.662;23.350;2023-05-07T12:00:58;4.78;;;3.90;;
16792;SDS011;8513;42.662;23.350;2023-05-07T12:03:24;4.13;;;3.83;;
16792;SDS011;8513;42.662;23.350;2023-05-07T12:05:49;4.35;;;4.05;;
16792;SDS011;8513;42.662;23.350;2023-05-07T12:08:15;4.60;;;3.90;;
16792;SDS011;8513;42.662;23.350;2023-05-07T12:10:41;4.15;;;3.85;;
16792;SDS011;8513;42.662;23.350;2023-05-07T12:13:14;4.20;;;3.80;;
16792;SDS011;8513;42.662;23.350;2023-05-07T12:15:43;5.28;;;3.92;;
16792;SDS011;8513;42.662;23.350;2023-05-07T12:18:10;4.20;;;3.80;;
16792;SDS011;8513;42.662;23.350;2023-05-07T12:20:36;4.32;;;3.63;;
16792;SDS011;8513;42.662;23.350;2023-05-07T12:23:02;4.30;;;3.90;;
16792;SDS011;8513;42.662;23.350;2023-05-07T12:25:31;4.28;;;3.72;;
16792;SDS011;8513;42.662;23.350;2023-05-07T12:28:00;4.45;;;3.55;;
16792;SDS011;8513;42.662;23.350;2023-05-07T12:30:26;4.45;;;3.60;;
16792;SDS011;8513;42.662;23.350;2023-05-07T12:32:54;5.80;;;3.83;;
16792;SDS011;8513;42.662;23.350;2023-05-07T12:35:30;3.60;;;3.30;;
16792;SDS011;8513;42.662;23.350;2023-05-07T12:37:56;3.90;;;3.50;;
16792;SDS011;8513;42.662;23.350;2023-05-07T12:40:38;4.85;;;3.38;;
16792;SDS011;8513;42.662;23.350;2023-05-07T12:43:05;4.00;;;3.60;;
16792;SDS011;8513;42.662;23.350;2023-05-07T12:45:31;3.35;;;3.15;;
16792;SDS011;8513;42.662;23.350;2023-05-07T12:47:57;3.50;;;3.20;;
16792;SDS011;8513;42.662;23.350;2023-05-07T12:50:30;3.60;;;3.30;;
16792;SDS011;8513;42.662;23.350;2023-05-07T12:53:00;3.20;;;2.92;;
16792;SDS011;8513;42.662;23.350;2023-05-07T12:55:40;3.92;;;3.10;;
16792;SDS011;8513;42.662;23.350;2023-05-07T12:58:07;3.67;;;3.30;;
16792;SDS011;8513;42.662;23.350;2023-05-07T13:00:39;4.38;;;2.72;;
16792;SDS011;8513;42.662;23.350;2023-05-07T13:06:31;3.58;;;2.75;;
16792;SDS011;8513;42.662;23.350;2023-05-07T13:09:12;3.30;;;2.97;;
16792;SDS011;8513;42.662;23.350;2023-05-07T13:11:56;4.43;;;2.60;;
16792;SDS011;8513;42.662;23.350;2023-05-07T13:14:35;2.47;;;2.28;;
16792;SDS011;8513;42.662;23.350;2023-05-07T13:17:06;2.92;;;2.72;;
16792;SDS011;8513;42.662;23.350;2023-05-07T13:19:31;3.25;;;2.95;;
16792;SDS011;8513;42.662;23.350;2023-05-07T13:21:57;2.65;;;2.45;;
16792;SDS011;8513;42.662;23.350;2023-05-07T13:24:22;2.67;;;2.47;;
16792;SDS011;8513;42.662;23.350;2023-05-07T13:26:48;3.45;;;2.70;;
16792;SDS011;8513;42.662;23.350;2023-05-07T13:29:13;2.95;;;2.60;;
16792;SDS011;8513;42.662;23.350;2023-05-07T13:31:38;3.63;;;2.92;;
16792;SDS011;8513;42.662;23.350;2023-05-07T13:34:07;3.33;;;2.60;;
16792;SDS011;8513;42.662;23.350;2023-05-07T13:36:33;3.05;;;2.80;;
16792;SDS011;8513;42.662;23.350;2023-05-07T13:39:02;3.78;;;2.72;;
16792;SDS011;8513;42.662;23.350;2023-05-07T13:41:28;3.85;;;2.65;;
16792;SDS011;8513;42.662;23.350;2023-05-07T13:43:54;3.10;;;2.65;;
16792;SDS011;8513;42.662;23.350;2023-05-07T13:46:19;3.33;;;2.97;;
16792;SDS011;8513;42.662;23.350;2023-05-07T13:48:44;3.63;;;2.65;;
16792;SDS011;8513;42.662;23.350;2023-05-07T13:51:10;2.70;;;2.50;;
16792;SDS011;8513;42.662;23.350;2023-05-07T13:53:36;3.08;;;2.80;;
16792;SDS011;8513;42.662;23.350;2023-05-07T13:56:02;3.22;;;2.85;;
16792;SDS011;8513;42.662;23.350;2023-05-07T13:58:29;5.15;;;2.60;;
16792;SDS011;8513;42.662;23.350;2023-05-07T14:00:55;3.40;;;2.53;;
16792;SDS011;8513;42.662;23.350;2023-05-07T14:03:20;3.58;;;2.63;;
16792;SDS011;8513;42.662;23.350;2023-05-07T14:05:46;3.45;;;2.45;;
16792;SDS011;8513;42.662;23.350;2023-05-07T14:08:11;4.28;;;2.92;;
16792;SDS011;8513;42.662;23.350;2023-05-07T14:10:39;4.75;;;4.28;;
16792;SDS011;8513;42.662;23.350;2023-05-07T14:13:07;2.15;;;2.00;;
16792;SDS011;8513;42.662;23.350;2023-05-07T14:15:32;2.80;;;2.60;;
16792;SDS011;8513;42.662;23.350;2023-05-07T14:17:58;3.25;;;2.70;;
16792;SDS011;8513;42.662;23.350;2023-05-07T14:20:24;3.60;;;3.40;;
16792;SDS011;8513;42.662;23.350;2023-05-07T14:22:50;2.83;;;2.63;;
16792;SDS011;8513;42.662;23.350;2023-05-07T14:25:16;18.13;;;3.25;;
16792;SDS011;8513;42.662;23.350;2023-05-07T14:27:41;4.18;;;2.90;;
16792;SDS011;8513;42.662;23.350;2023-05-07T14:30:07;3.10;;;2.90;;
16792;SDS011;8513;42.662;23.350;2023-05-07T14:32:33;8.65;;;3.20;;
16792;SDS011;8513;42.662;23.350;2023-05-07T14:34:59;2.80;;;2.60;;
16792;SDS011;8513;42.662;23.350;2023-05-07T14:37:27;5.78;;;2.65;;
16792;SDS011;8513;42.662;23.350;2023-05-07T14:39:53;3.90;;;3.10;;
16792;SDS011;8513;42.662;23.350;2023-05-07T14:42:18;5.18;;;4.68;;
16792;SDS011;8513;42.662;23.350;2023-05-07T14:44:44;3.40;;;2.95;;
16792;SDS011;8513;42.662;23.350;2023-05-07T14:47:13;3.38;;;2.60;;
16792;SDS011;8513;42.662;23.350;2023-05-07T14:49:38;3.45;;;3.15;;
16792;SDS011;8513;42.662;23.350;2023-05-07T14:52:05;4.38;;;2.80;;